Time;durP1;ratioP1;P1;durP2;ratioP2;P2;SDS_P1;SDS_P2;PMS_P1;PMS_P2;Temp;Humidity;BMP_temperature;BMP_pressure;BME280_temperature;BME280_humidity;BME280_pressure;Samples;Min_cycle;Max_cycle;Signal;HPM_P1;HPM_P2
2021/12/23 00:00:00;;;;;;;9.13;6.20;;;-1.00;99.40;;;;;;5032790;28;20419;-49
2021/12/23 00:02:26;;;;;;;10.37;6.20;;;-1.00;99.50;;;;;;5032098;28;20783;-47
2021/12/23 00:04:52;;;;;;;8.83;6.43;;;-1.00;99.50;;;;;;5032567;28;20218;-48
2021/12/23 00:07:17;;;;;;;8.40;6.70;;;-1.00;99.20;;;;;;5031457;28;20175;-51
2021/12/23 00:10:25;;;;;;;9.87;6.57;;;-0.90;99.40;;;;;;5038328;28;20183;-48
2021/12/23 00:12:42;;;;;;;7.70;5.97;;;-0.90;99.30;;;;;;5041639;28;20194;-52
2021/12/23 00:15:17;;;;;;;7.77;5.70;;;-0.90;99.00;;;;;;5051522;28;20835;-49
2021/12/23 00:17:56;;;;;;;8.27;6.27;;;-1.00;99.00;;;;;;5050386;28;20416;-49
2021/12/23 00:25:34;;;;;;;8.67;5.97;;;-1.00;99.30;;;;;;5031686;28;21164;-53
2021/12/23 00:28:00;;;;;;;7.60;5.73;;;-1.10;99.20;;;;;;5032531;28;20490;-49
2021/12/23 00:30:25;;;;;;;7.23;5.70;;;-1.10;99.40;;;;;;5032117;28;20179;-48
2021/12/23 00:32:51;;;;;;;9.30;5.63;;;-1.10;99.30;;;;;;5031734;28;20196;-46
2021/12/23 00:35:16;;;;;;;8.67;5.87;;;-1.10;99.30;;;;;;5031737;28;20243;-48
2021/12/23 00:37:45;;;;;;;8.20;5.90;;;-1.10;99.20;;;;;;5030317;28;20644;-53
2021/12/23 00:40:12;;;;;;;8.73;5.97;;;-1.10;99.40;;;;;;5032036;28;20187;-47
2021/12/23 00:42:38;;;;;;;8.67;6.07;;;-1.10;99.40;;;;;;5031585;28;20434;-48
2021/12/23 00:45:05;;;;;;;8.30;5.43;;;-1.20;99.20;;;;;;5031673;28;20955;-53
2021/12/23 00:47:31;;;;;;;8.83;6.30;;;-1.20;99.20;;;;;;5032042;28;20409;-53
2021/12/23 00:49:57;;;;;;;8.00;5.80;;;-1.20;98.90;;;;;;5031326;28;20406;-48
2021/12/23 00:52:31;;;;;;;7.27;5.97;;;-1.20;98.80;;;;;;5027298;28;20541;-48
2021/12/23 00:54:57;;;;;;;8.93;6.00;;;-1.30;98.90;;;;;;5023818;28;20965;-52
2021/12/23 00:57:27;;;;;;;9.10;6.50;;;-1.30;99.10;;;;;;5014342;28;20415;-51
2021/12/23 00:59:54;;;;;;;7.67;5.67;;;-1.30;99.10;;;;;;5031688;28;20164;-51
2021/12/23 01:02:24;;;;;;;8.17;5.73;;;-1.30;99.00;;;;;;5031451;28;20442;-54
2021/12/23 01:04:49;;;;;;;7.47;5.33;;;-1.30;99.20;;;;;;5030641;28;21069;-51
2021/12/23 01:07:15;;;;;;;8.20;5.73;;;-1.30;99.30;;;;;;5009897;28;20521;-49
2021/12/23 01:09:40;;;;;;;8.00;5.37;;;-1.30;99.40;;;;;;5029584;28;20194;-49
2021/12/23 01:12:09;;;;;;;8.93;5.53;;;-1.30;99.30;;;;;;5029861;28;20199;-52
2021/12/23 01:14:52;;;;;;;7.27;5.40;;;-1.40;99.50;;;;;;5030710;28;20214;-50
2021/12/23 01:19:49;;;;;;;7.27;5.20;;;-1.40;99.40;;;;;;5031457;28;20501;-52
2021/12/23 01:22:15;;;;;;;8.47;5.27;;;-1.40;99.40;;;;;;5031038;28;20176;-53
2021/12/23 01:24:41;;;;;;;9.37;5.77;;;-1.40;99.30;;;;;;5032442;28;20465;-54
2021/12/23 01:27:07;;;;;;;7.60;5.30;;;-1.40;99.40;;;;;;5030117;28;20243;-51
2021/12/23 01:29:32;;;;;;;8.83;5.83;;;-1.40;99.40;;;;;;5031497;28;20238;-51
2021/12/23 01:32:00;;;;;;;7.13;5.10;;;-1.50;99.40;;;;;;5031153;28;20175;-50
2021/12/23 01:34:26;;;;;;;8.63;5.70;;;-1.60;99.50;;;;;;5031478;28;20214;-51
2021/12/23 01:36:51;;;;;;;7.40;5.47;;;-1.60;99.50;;;;;;5031286;28;20845;-47
2021/12/23 01:39:17;;;;;;;9.03;5.87;;;-1.60;99.50;;;;;;5031380;28;20168;-50
2021/12/23 01:41:42;;;;;;;7.30;5.60;;;-1.60;99.40;;;;;;5031383;28;20180;-51
2021/12/23 01:44:08;;;;;;;7.67;5.80;;;-1.60;99.40;;;;;;5031191;28;20253;-49
2021/12/23 01:46:33;;;;;;;8.67;5.60;;;-1.70;99.40;;;;;;5030939;28;20211;-49
2021/12/23 01:48:59;;;;;;;7.63;5.43;;;-1.70;99.10;;;;;;5031036;28;20218;-49
2021/12/23 01:51:25;;;;;;;7.37;5.27;;;-1.80;99.40;;;;;;5031333;28;20177;-53
2021/12/23 01:53:50;;;;;;;9.43;5.57;;;-1.80;99.20;;;;;;5031114;28;20188;-49
2021/12/23 01:56:17;;;;;;;6.70;5.00;;;-1.80;99.30;;;;;;5031186;28;20198;-52
2021/12/23 01:58:43;;;;;;;7.00;5.10;;;-1.80;99.40;;;;;;5031318;28;20259;-53
2021/12/23 02:01:10;;;;;;;6.73;5.27;;;-1.80;99.60;;;;;;5031183;28;20494;-50
2021/12/23 02:03:36;;;;;;;7.97;5.77;;;-1.80;99.50;;;;;;5031173;28;20188;-50
2021/12/23 02:06:01;;;;;;;8.83;5.27;;;-1.80;99.80;;;;;;5030797;28;20465;-50
2021/12/23 02:08:27;;;;;;;7.03;5.30;;;-1.80;99.70;;;;;;5031305;28;20394;-51
2021/12/23 02:10:54;;;;;;;6.63;4.83;;;-1.80;99.70;;;;;;5031035;28;20259;-50
2021/12/23 02:13:21;;;;;;;6.97;5.10;;;-1.80;99.60;;;;;;5031133;28;20195;-51
2021/12/23 02:15:47;;;;;;;8.80;5.30;;;-1.80;99.50;;;;;;5030693;28;20398;-48
2021/12/23 02:18:13;;;;;;;6.87;5.13;;;-1.90;99.10;;;;;;5031288;28;20768;-53
2021/12/23 02:20:38;;;;;;;9.23;5.33;;;-1.90;99.10;;;;;;5033208;28;20175;-53
2021/12/23 02:23:07;;;;;;;7.33;5.07;;;-1.90;99.10;;;;;;5034380;28;20206;-49
2021/12/23 02:25:32;;;;;;;8.47;5.80;;;-1.80;99.40;;;;;;5034398;28;20199;-50
2021/12/23 02:28:03;;;;;;;6.33;4.97;;;-1.90;99.30;;;;;;5034616;28;20414;-50
2021/12/23 02:30:29;;;;;;;7.07;4.83;;;-1.80;99.40;;;;;;5034835;28;20176;-49
2021/12/23 02:32:56;;;;;;;6.30;4.97;;;-1.80;99.50;;;;;;5034316;28;20430;-50
2021/12/23 02:35:23;;;;;;;7.80;4.83;;;-1.90;99.40;;;;;;5034309;28;20176;-51
2021/12/23 02:37:49;;;;;;;7.47;5.70;;;-1.90;99.30;;;;;;5034395;28;20446;-50
2021/12/23 02:40:32;;;;;;;8.00;5.43;;;-1.90;99.50;;;;;;5034502;28;20418;-49
2021/12/23 02:43:11;;;;;;;8.50;5.40;;;-1.90;99.60;;;;;;5034192;28;20450;-51
2021/12/23 02:45:37;;;;;;;7.13;4.80;;;-1.90;99.70;;;;;;5034218;28;20460;-49
2021/12/23 02:48:03;;;;;;;5.03;4.03;;;-1.90;99.70;;;;;;5034073;28;20402;-49
2021/12/23 02:50:29;;;;;;;6.53;4.90;;;-1.90;99.80;;;;;;5034416;28;20402;-54
2021/12/23 02:52:58;;;;;;;6.93;4.23;;;-1.80;99.70;;;;;;5034095;28;20422;-49
2021/12/23 02:55:23;;;;;;;7.97;5.13;;;-1.90;99.30;;;;;;5033177;28;20229;-51
2021/12/23 02:57:49;;;;;;;6.97;4.87;;;-1.90;99.50;;;;;;5034084;28;20489;-53
2021/12/23 03:00:15;;;;;;;8.40;4.93;;;-1.90;99.70;;;;;;5034028;28;20174;-49
2021/12/23 03:02:41;;;;;;;6.40;4.73;;;-1.90;99.70;;;;;;5034041;28;20190;-50
2021/12/23 03:05:07;;;;;;;6.17;4.03;;;-1.80;99.70;;;;;;5033253;28;20195;-53
2021/12/23 03:07:33;;;;;;;6.63;4.97;;;-1.80;99.70;;;;;;5034103;28;20509;-49
2021/12/23 03:09:59;;;;;;;6.07;4.70;;;-1.70;99.80;;;;;;5033768;28;20403;-49
2021/12/23 03:12:25;;;;;;;6.30;4.57;;;-1.70;99.90;;;;;;5033262;28;20441;-51
2021/12/23 03:14:50;;;;;;;6.30;4.63;;;-1.80;99.90;;;;;;5033164;28;20192;-51
2021/12/23 03:17:16;;;;;;;5.30;4.20;;;-1.70;99.80;;;;;;5033549;28;20184;-49
2021/12/23 03:19:42;;;;;;;5.57;3.97;;;-1.80;99.50;;;;;;5033867;28;20180;-51
2021/12/23 03:22:07;;;;;;;6.00;4.27;;;-1.80;99.40;;;;;;5033450;28;20186;-44
2021/12/23 03:24:33;;;;;;;7.07;4.70;;;-1.80;99.70;;;;;;5033301;28;20215;-51
2021/12/23 03:26:59;;;;;;;7.70;4.93;;;-1.80;99.90;;;;;;5033263;28;20203;-52
2021/12/23 03:29:25;;;;;;;7.50;5.33;;;-1.70;99.80;;;;;;5033619;28;20414;-49
2021/12/23 03:31:50;;;;;;;6.60;5.37;;;-1.70;99.80;;;;;;5023900;28;20179;-49
2021/12/23 03:34:16;;;;;;;6.37;4.87;;;-1.70;99.80;;;;;;5033526;28;20195;-50
2021/12/23 03:36:41;;;;;;;7.57;4.87;;;-1.70;99.80;;;;;;5032851;28;20259;-53
2021/12/23 03:39:07;;;;;;;7.10;4.97;;;-1.60;99.90;;;;;;5033670;28;20251;-51
2021/12/23 03:41:32;;;;;;;7.53;4.87;;;-1.60;99.90;;;;;;5033429;28;20176;-49
2021/12/23 03:43:58;;;;;;;6.87;4.87;;;-1.70;99.80;;;;;;5032965;28;20737;-53
2021/12/23 03:46:24;;;;;;;7.03;4.90;;;-1.70;99.80;;;;;;5033268;28;20676;-52
2021/12/23 03:48:50;;;;;;;5.17;4.07;;;-1.70;99.90;;;;;;5033021;28;20180;-50
2021/12/23 03:51:16;;;;;;;7.63;4.93;;;-1.60;99.90;;;;;;5033123;28;20215;-52
2021/12/23 03:53:41;;;;;;;6.50;4.47;;;-1.60;99.90;;;;;;5032922;28;20482;-52
2021/12/23 03:56:07;;;;;;;6.80;4.73;;;-1.60;99.90;;;;;;5032929;28;20653;-52
2021/12/23 03:58:32;;;;;;;6.47;4.50;;;-1.60;99.90;;;;;;5033124;28;20175;-49
2021/12/23 04:00:59;;;;;;;6.13;4.80;;;-1.50;99.90;;;;;;5033236;28;20178;-50
2021/12/23 04:03:25;;;;;;;7.60;5.57;;;-1.60;99.80;;;;;;5032993;28;20199;-48
2021/12/23 04:05:50;;;;;;;6.17;4.87;;;-1.60;99.80;;;;;;5032416;28;20458;-48
2021/12/23 04:08:16;;;;;;;7.30;5.60;;;-1.50;99.90;;;;;;5032917;28;20255;-51
2021/12/23 04:10:42;;;;;;;8.47;5.70;;;-1.60;99.90;;;;;;5032648;28;20250;-52
2021/12/23 04:13:07;;;;;;;8.07;5.90;;;-1.50;99.90;;;;;;5032612;28;20188;-53
2021/12/23 04:15:33;;;;;;;6.77;4.60;;;-1.60;99.90;;;;;;5032333;28;20415;-53
2021/12/23 04:17:59;;;;;;;7.83;5.37;;;-1.60;99.80;;;;;;5032716;28;20204;-49
2021/12/23 04:20:32;;;;;;;6.40;4.70;;;-1.80;99.90;;;;;;5032515;28;20263;-51
2021/12/23 04:22:57;;;;;;;7.67;4.90;;;-2.00;99.90;;;;;;5032306;28;20203;-49
2021/12/23 04:25:25;;;;;;;7.77;4.77;;;-2.10;99.90;;;;;;5030763;28;20454;-51
2021/12/23 04:28:03;;;;;;;6.60;4.50;;;-2.10;99.90;;;;;;5032680;28;20202;-50
2021/12/23 04:30:29;;;;;;;8.93;4.60;;;-2.00;99.90;;;;;;5032452;28;21033;-50
2021/12/23 04:32:55;;;;;;;7.77;4.83;;;-2.00;99.90;;;;;;5032100;28;20427;-50
2021/12/23 04:35:21;;;;;;;8.97;5.13;;;-1.90;99.90;;;;;;5032241;28;20214;-50
2021/12/23 04:37:46;;;;;;;7.53;5.40;;;-1.90;99.90;;;;;;5032119;28;20183;-53
2021/12/23 04:40:12;;;;;;;7.53;5.57;;;-2.00;99.90;;;;;;5032355;28;20418;-50
2021/12/23 04:42:39;;;;;;;7.67;6.27;;;-1.90;99.90;;;;;;5031794;28;20184;-51
2021/12/23 04:45:07;;;;;;;9.37;6.10;;;-1.90;99.90;;;;;;5031780;28;20411;-54
2021/12/23 04:47:33;;;;;;;9.03;6.10;;;-1.90;99.90;;;;;;5031900;28;20484;-50
2021/12/23 04:49:58;;;;;;;8.53;6.33;;;-1.90;99.90;;;;;;5032232;28;20399;-51
2021/12/23 04:52:24;;;;;;;8.10;5.90;;;-1.90;99.90;;;;;;5031884;28;20460;-51
2021/12/23 04:54:50;;;;;;;8.07;6.13;;;-1.90;99.90;;;;;;5031692;28;20188;-49
2021/12/23 04:57:15;;;;;;;9.10;6.07;;;-1.90;99.90;;;;;;5032179;28;20696;-52
2021/12/23 04:59:41;;;;;;;8.50;6.60;;;-1.90;99.90;;;;;;5031786;28;20211;-51
2021/12/23 05:02:06;;;;;;;8.00;5.93;;;-1.80;99.90;;;;;;5031981;28;20180;-50
2021/12/23 05:04:32;;;;;;;8.57;5.70;;;-1.80;99.90;;;;;;5031487;28;20202;-50
2021/12/23 05:06:57;;;;;;;10.07;6.93;;;-1.80;99.90;;;;;;5031720;28;20203;-48
2021/12/23 05:09:23;;;;;;;8.93;6.47;;;-1.80;99.90;;;;;;5031765;28;20269;-50
2021/12/23 05:11:48;;;;;;;12.60;8.10;;;-1.80;99.90;;;;;;5030599;28;20249;-50
2021/12/23 05:14:14;;;;;;;16.73;10.93;;;-1.80;99.90;;;;;;5031433;28;20284;-49
2021/12/23 05:16:40;;;;;;;11.93;8.87;;;-1.90;99.90;;;;;;5031477;28;20229;-52
2021/12/23 05:19:05;;;;;;;11.77;8.23;;;-1.90;99.90;;;;;;5032045;28;20811;-48
2021/12/23 05:21:31;;;;;;;10.60;7.17;;;-1.90;99.90;;;;;;5031413;28;20179;-47
2021/12/23 05:23:57;;;;;;;11.40;7.53;;;-1.80;99.90;;;;;;5031533;28;20696;-49
2021/12/23 05:26:23;;;;;;;12.27;8.57;;;-1.80;99.90;;;;;;5031135;28;20673;-52
2021/12/23 05:28:48;;;;;;;13.23;8.20;;;-1.70;99.90;;;;;;5031631;28;20175;-49
2021/12/23 05:31:14;;;;;;;10.70;8.30;;;-1.80;99.90;;;;;;5031242;28;20545;-49
2021/12/23 05:33:39;;;;;;;12.00;8.13;;;-1.80;99.90;;;;;;5031590;28;20207;-50
2021/12/23 05:36:05;;;;;;;12.17;8.27;;;-1.80;99.90;;;;;;5029786;28;20180;-52
2021/12/23 05:38:31;;;;;;;12.67;8.53;;;-1.80;99.90;;;;;;5030399;28;20573;-51
2021/12/23 05:40:56;;;;;;;13.03;9.17;;;-1.80;99.90;;;;;;5029964;28;20179;-49
2021/12/23 05:43:22;;;;;;;13.10;8.60;;;-1.90;99.90;;;;;;5031427;28;20204;-52
2021/12/23 05:45:48;;;;;;;13.57;9.13;;;-1.90;99.90;;;;;;5031034;28;20233;-52
2021/12/23 05:48:14;;;;;;;15.37;9.50;;;-1.80;99.90;;;;;;5031325;28;20176;-50
2021/12/23 05:50:39;;;;;;;14.30;9.93;;;-1.80;99.90;;;;;;5031488;28;20183;-48
2021/12/23 05:53:05;;;;;;;14.57;9.47;;;-1.70;99.90;;;;;;5031318;28;20434;-48
2021/12/23 05:55:31;;;;;;;16.57;10.37;;;-1.70;99.90;;;;;;5032510;28;20183;-53
2021/12/23 05:57:56;;;;;;;14.17;10.07;;;-1.70;99.90;;;;;;5035432;28;20179;-53
2021/12/23 06:00:28;;;;;;;16.80;11.23;;;-1.80;99.90;;;;;;5035193;28;20230;-50
2021/12/23 06:02:55;;;;;;;15.20;10.50;;;-1.80;99.90;;;;;;5035025;28;20611;-51
2021/12/23 06:05:21;;;;;;;15.90;10.73;;;-1.80;99.90;;;;;;5036415;28;20461;-48
2021/12/23 06:07:47;;;;;;;15.20;10.63;;;-1.90;99.90;;;;;;5035707;28;20446;-54
2021/12/23 06:10:14;;;;;;;18.43;11.70;;;-2.00;99.90;;;;;;5034915;28;20406;-50
2021/12/23 06:12:40;;;;;;;15.30;10.63;;;-2.00;99.90;;;;;;5034983;28;20425;-53
2021/12/23 06:15:06;;;;;;;15.93;11.03;;;-2.00;99.90;;;;;;5034531;28;20775;-51
2021/12/23 06:17:32;;;;;;;16.80;11.77;;;-1.80;99.90;;;;;;5035217;28;20416;-53
2021/12/23 06:19:58;;;;;;;17.03;11.43;;;-1.80;99.90;;;;;;5034742;28;20415;-50
2021/12/23 06:22:24;;;;;;;19.13;11.67;;;-1.80;99.90;;;;;;5034781;28;20559;-49
2021/12/23 06:24:50;;;;;;;16.60;11.23;;;-1.80;99.90;;;;;;5034204;28;20203;-50
2021/12/23 06:27:17;;;;;;;15.77;10.67;;;-1.70;99.90;;;;;;5034854;28;20213;-51
2021/12/23 06:29:43;;;;;;;18.37;11.83;;;-1.70;99.90;;;;;;5034485;28;20442;-49
2021/12/23 06:32:09;;;;;;;16.43;11.10;;;-1.70;99.90;;;;;;5034765;28;20453;-51
2021/12/23 06:34:34;;;;;;;19.03;10.57;;;-1.70;99.90;;;;;;5034578;28;20478;-52
2021/12/23 06:37:01;;;;;;;16.33;11.00;;;-1.70;99.90;;;;;;5034534;28;20414;-49
2021/12/23 06:39:27;;;;;;;17.93;11.33;;;-1.70;99.90;;;;;;5034623;28;20188;-53
2021/12/23 06:41:52;;;;;;;16.43;10.87;;;-1.70;99.90;;;;;;5034179;28;20426;-50
2021/12/23 06:44:18;;;;;;;15.87;10.53;;;-1.60;99.90;;;;;;5034364;28;20473;-51
2021/12/23 06:46:44;;;;;;;15.63;10.83;;;-1.60;99.90;;;;;;5033875;28;20207;-52
2021/12/23 06:49:09;;;;;;;16.07;10.47;;;-1.70;99.90;;;;;;5034710;28;20202;-49
2021/12/23 06:51:35;;;;;;;16.13;12.20;;;-1.70;99.90;;;;;;5034022;28;20730;-48
2021/12/23 06:54:02;;;;;;;18.57;10.47;;;-1.70;99.90;;;;;;5034277;28;20736;-47
2021/12/23 06:56:28;;;;;;;16.53;11.97;;;-1.70;99.90;;;;;;5034241;28;20206;-48
2021/12/23 06:58:54;;;;;;;18.67;12.27;;;-1.70;99.90;;;;;;5034448;28;20403;-49
2021/12/23 07:01:21;;;;;;;15.47;11.70;;;-1.70;99.90;;;;;;5034134;28;20172;-45
2021/12/23 07:06:21;;;;;;;17.67;11.73;;;-1.60;99.90;;;;;;5031063;28;21009;-50
2021/12/23 07:08:47;;;;;;;15.23;11.50;;;-1.50;99.90;;;;;;5033186;28;20908;-52
2021/12/23 07:11:12;;;;;;;16.53;11.90;;;-1.50;99.90;;;;;;5033864;28;20429;-49
2021/12/23 07:13:38;;;;;;;18.93;12.80;;;-3.30;99.90;;;;;;5032996;28;20203;-49
2021/12/23 07:16:04;;;;;;;21.20;13.97;;;-1.40;99.90;;;;;;5033481;28;20544;-51
2021/12/23 07:18:29;;;;;;;21.47;13.80;;;-1.40;99.90;;;;;;5033716;28;20672;-51
2021/12/23 07:20:55;;;;;;;23.00;15.53;;;-1.50;99.90;;;;;;5033793;28;20270;-50
2021/12/23 07:23:21;;;;;;;23.83;14.40;;;-1.50;99.90;;;;;;5033043;28;20303;-47
2021/12/23 07:25:46;;;;;;;21.70;14.33;;;-1.40;99.90;;;;;;5033037;28;20235;-48
2021/12/23 07:28:12;;;;;;;22.33;14.13;;;-1.50;99.90;;;;;;5032163;28;20179;-57
2021/12/23 07:30:37;;;;;;;21.83;14.07;;;-1.60;99.90;;;;;;5031774;28;20259;-49
2021/12/23 07:33:03;;;;;;;19.63;13.73;;;-1.70;99.90;;;;;;5032462;28;20246;-49
2021/12/23 07:35:29;;;;;;;23.60;14.43;;;-1.80;99.90;;;;;;5023868;28;20200;-48
2021/12/23 07:37:57;;;;;;;22.83;16.50;;;-1.70;99.90;;;;;;5032904;28;20187;-50
2021/12/23 07:40:23;;;;;;;31.60;22.27;;;-1.50;99.90;;;;;;5030590;28;20419;-50
2021/12/23 07:42:54;;;;;;;21.13;14.03;;;-1.40;99.90;;;;;;5031278;28;20441;-51
2021/12/23 07:45:21;;;;;;;21.43;14.60;;;-1.40;99.90;;;;;;5032074;28;20183;-49
2021/12/23 07:47:47;;;;;;;20.90;14.77;;;-1.40;99.90;;;;;;5033049;28;20418;-52
2021/12/23 07:50:13;;;;;;;22.07;14.63;;;-1.40;99.90;;;;;;5032723;28;20415;-49
2021/12/23 07:52:38;;;;;;;22.13;14.60;;;-1.50;99.90;;;;;;5031178;28;20615;-48
2021/12/23 07:55:04;;;;;;;24.73;15.70;;;-1.50;99.90;;;;;;5032803;28;20641;-53
2021/12/23 07:57:30;;;;;;;24.70;17.33;;;-1.60;99.90;;;;;;5032495;28;20176;-51
2021/12/23 07:59:58;;;;;;;21.57;14.60;;;-1.40;99.90;;;;;;5032832;28;20417;-50
2021/12/23 08:02:23;;;;;;;24.37;15.40;;;-1.50;99.90;;;;;;5032227;28;20575;-48
2021/12/23 08:04:49;;;;;;;25.20;15.70;;;-1.40;99.90;;;;;;5032032;28;20426;-53
2021/12/23 08:07:14;;;;;;;23.03;14.90;;;-1.40;99.90;;;;;;5032367;28;20563;-56
2021/12/23 08:09:40;;;;;;;21.83;13.97;;;-1.20;99.90;;;;;;5032637;28;20247;-49
2021/12/23 08:12:07;;;;;;;21.40;14.47;;;-1.10;99.90;;;;;;5032898;28;20172;-50
2021/12/23 08:14:32;;;;;;;21.37;14.63;;;-1.00;99.90;;;;;;5031986;28;20187;-48
2021/12/23 08:16:58;;;;;;;21.27;14.93;;;0.70;99.90;;;;;;5031992;28;20473;-49
2021/12/23 08:19:24;;;;;;;19.60;14.27;;;-0.80;99.90;;;;;;5032110;28;20192;-50
2021/12/23 08:21:49;;;;;;;23.33;16.30;;;-0.70;99.90;;;;;;5032523;28;20190;-53
2021/12/23 08:24:15;;;;;;;21.47;14.30;;;-0.60;99.90;;;;;;5032195;28;20639;-49
2021/12/23 08:26:44;;;;;;;22.73;14.73;;;-0.50;99.90;;;;;;5032113;28;20594;-49
2021/12/23 08:29:09;;;;;;;26.83;17.87;;;-0.40;99.90;;;;;;5032407;28;20168;-50
2021/12/23 08:31:35;;;;;;;26.53;18.70;;;-0.40;99.90;;;;;;5032359;28;20784;-52
2021/12/23 08:34:01;;;;;;;29.57;20.67;;;-0.30;99.90;;;;;;5015121;28;20207;-55
2021/12/23 08:36:27;;;;;;;28.27;19.83;;;-0.40;99.90;;;;;;5033078;28;20583;-53
2021/12/23 08:38:53;;;;;;;27.47;17.90;;;-0.30;99.90;;;;;;5033446;28;20264;-51
2021/12/23 08:41:18;;;;;;;26.27;17.43;;;-0.30;99.90;;;;;;5032051;28;20490;-49
2021/12/23 08:43:44;;;;;;;24.73;16.73;;;-0.40;99.90;;;;;;5032116;28;20195;-48
2021/12/23 08:46:11;;;;;;;28.00;18.67;;;-0.70;99.90;;;;;;5033849;28;20690;-52
2021/12/23 08:48:37;;;;;;;25.63;18.23;;;-0.80;99.90;;;;;;5033169;28;20176;-49
2021/12/23 08:51:03;;;;;;;25.20;18.13;;;-0.70;99.90;;;;;;5033354;28;20896;-48
2021/12/23 08:53:28;;;;;;;25.87;16.87;;;-0.50;99.90;;;;;;5031382;28;20196;-52
2021/12/23 08:55:54;;;;;;;24.27;16.47;;;-0.40;99.90;;;;;;5037965;28;20428;-52
2021/12/23 08:58:19;;;;;;;28.83;18.47;;;-0.20;99.90;;;;;;5040838;28;20196;-53
2021/12/23 09:00:45;;;;;;;27.43;17.53;;;-0.10;99.90;;;;;;5045738;28;20187;-53
2021/12/23 09:03:10;;;;;;;27.90;18.30;;;0.00;99.90;;;;;;5034391;28;20215;-54
2021/12/23 09:05:38;;;;;;;24.63;17.00;;;0.00;99.90;;;;;;5042662;28;20563;-50
2021/12/23 09:08:05;;;;;;;28.87;20.23;;;0.10;99.90;;;;;;5031742;28;20172;-49
2021/12/23 09:10:31;;;;;;;25.43;17.83;;;0.20;99.90;;;;;;5031469;28;20418;-47
2021/12/23 09:12:59;;;;;;;23.47;16.57;;;0.30;99.90;;;;;;5043453;28;20839;-53
2021/12/23 09:15:24;;;;;;;27.03;16.83;;;0.30;99.90;;;;;;5050197;28;20412;-45
2021/12/23 09:17:50;;;;;;;23.77;17.53;;;0.40;99.90;;;;;;5050657;28;20417;-50
2021/12/23 09:20:18;;;;;;;22.00;16.37;;;0.40;99.90;;;;;;5033527;28;20179;-49
2021/12/23 09:22:44;;;;;;;23.70;16.07;;;0.70;99.90;;;;;;5051486;28;20410;-53
2021/12/23 09:25:18;;;;;;;29.00;19.63;;;0.90;99.90;;;;;;5051243;28;20883;-52
2021/12/23 09:28:05;;;;;;;25.70;17.77;;;1.20;99.90;;;;;;5051448;28;20413;-51
2021/12/23 09:33:16;;;;;;;40.87;28.27;;;1.50;99.90;;;;;;5055641;28;20440;-56
2021/12/23 09:35:42;;;;;;;31.40;22.77;;;1.80;99.90;;;;;;5055274;28;20443;-56
2021/12/23 09:38:09;;;;;;;26.90;18.30;;;2.00;99.90;;;;;;5055728;28;20418;-55
2021/12/23 09:40:35;;;;;;;26.03;18.17;;;2.00;99.90;;;;;;5055675;28;20433;-50
2021/12/23 09:43:04;;;;;;;26.80;17.47;;;2.00;99.90;;;;;;5055588;28;20490;-55
2021/12/23 09:45:31;;;;;;;26.60;19.57;;;2.10;99.90;;;;;;5054994;28;20456;-52
2021/12/23 09:47:58;;;;;;;25.13;17.57;;;2.20;99.90;;;;;;5055613;28;20410;-49
2021/12/23 09:50:28;;;;;;;29.53;19.30;;;2.40;99.90;;;;;;5055320;28;20417;-49
2021/12/23 09:52:54;;;;;;;24.33;17.57;;;2.50;99.90;;;;;;5055402;28;20436;-56
2021/12/23 09:55:25;;;;;;;26.33;18.27;;;2.60;99.40;;;;;;5055145;28;20493;-52
2021/12/23 09:57:53;;;;;;;28.10;18.77;;;2.50;99.60;;;;;;5045970;28;20550;-49
2021/12/23 10:00:21;;;;;;;26.17;19.13;;;2.50;99.90;;;;;;5035022;28;20413;-51
2021/12/23 10:02:47;;;;;;;28.10;18.97;;;2.50;99.30;;;;;;5035231;28;20892;-51
2021/12/23 10:05:20;;;;;;;26.77;19.17;;;2.30;99.60;;;;;;5033758;28;20425;-51
2021/12/23 10:07:47;;;;;;;25.57;18.10;;;2.30;99.60;;;;;;5034469;28;20414;-57
2021/12/23 10:10:20;;;;;;;28.97;19.17;;;2.30;99.90;;;;;;5035018;28;20751;-50
2021/12/23 10:31:52;;;;;;;28.20;19.33;;;1.80;99.90;;;;;;5034703;28;20421;-53
2021/12/23 10:37:18;;;;;;;25.47;19.13;;;1.90;99.90;;;;;;5034400;28;20409;-48
2021/12/23 10:40:03;;;;;;;32.13;20.83;;;1.90;99.90;;;;;;5034501;28;20403;-51
2021/12/23 10:42:30;;;;;;;30.20;21.70;;;1.70;99.90;;;;;;5034130;28;20907;-51
2021/12/23 10:45:04;;;;;;;28.20;20.00;;;1.60;99.90;;;;;;5034024;28;20511;-49
2021/12/23 10:47:46;;;;;;;28.50;20.10;;;1.80;99.90;;;;;;5034238;28;20477;-49
2021/12/23 10:50:34;;;;;;;26.03;19.30;;;2.10;99.90;;;;;;5033636;28;20490;-49
2021/12/23 10:53:09;;;;;;;25.20;18.23;;;2.70;99.90;;;;;;5034044;28;20834;-49
2021/12/23 10:58:20;;;;;;;24.37;17.80;;;4.60;99.30;;;;;;5034186;28;20553;-56
2021/12/23 11:00:53;;;;;;;25.27;18.00;;;6.00;97.50;;;;;;5033939;28;20171;-53
2021/12/23 11:03:34;;;;;;;24.50;17.77;;;6.90;95.50;;;;;;5033114;28;20192;-53
2021/12/23 11:08:49;;;;;;;24.43;17.97;;;7.10;92.20;;;;;;5033577;28;20176;-51
2021/12/23 11:28:39;;;;;;;26.97;19.77;;;3.30;97.40;;;;;;5032949;28;20267;-49
2021/12/23 11:41:46;;;;;;;27.33;19.47;;;2.70;98.90;;;;;;5032072;28;20241;-53
2021/12/23 11:44:13;;;;;;;29.13;20.13;;;2.80;98.90;;;;;;5031861;28;20573;-52
2021/12/23 11:46:49;;;;;;;27.63;18.47;;;3.00;98.90;;;;;;5031993;28;20692;-56
2021/12/23 11:49:16;;;;;;;27.97;21.13;;;3.20;98.60;;;;;;5028231;28;20419;-54
2021/12/23 11:52:02;;;;;;;28.80;20.60;;;3.30;98.30;;;;;;5033069;28;20667;-48
2021/12/23 11:54:33;;;;;;;29.97;20.83;;;3.20;98.30;;;;;;5032466;28;20198;-58
2021/12/23 11:57:03;;;;;;;28.17;19.17;;;3.20;98.50;;;;;;5032903;28;20182;-56
2021/12/23 11:59:34;;;;;;;29.10;20.57;;;3.20;98.30;;;;;;5032830;28;20717;-52
2021/12/23 12:02:00;;;;;;;29.17;19.63;;;2.90;98.60;;;;;;5033132;28;20184;-56
2021/12/23 12:04:32;;;;;;;29.27;20.33;;;2.70;99.10;;;;;;5031431;28;20207;-57
2021/12/23 12:06:59;;;;;;;30.30;21.07;;;2.80;99.20;;;;;;5032221;28;20204;-58
2021/12/23 12:09:31;;;;;;;26.27;18.63;;;3.00;99.50;;;;;;5032809;28;20202;-55
2021/12/23 12:11:59;;;;;;;28.17;20.37;;;3.40;99.50;;;;;;5032877;28;20168;-55
2021/12/23 12:14:38;;;;;;;26.17;18.30;;;3.90;99.20;;;;;;5032359;28;20195;-55
2021/12/23 12:17:25;;;;;;;27.43;19.77;;;4.40;97.30;;;;;;5032591;28;20172;-53
2021/12/23 12:20:03;;;;;;;27.77;19.00;;;4.50;97.10;;;;;;5032634;28;20172;-54
2021/12/23 12:22:49;;;;;;;30.43;20.93;;;4.40;96.90;;;;;;5015128;28;20180;-57
2021/12/23 12:25:24;;;;;;;30.90;21.50;;;4.20;97.70;;;;;;5032519;28;20669;-55
2021/12/23 12:27:55;;;;;;;27.87;20.20;;;4.00;97.60;;;;;;5033576;28;20175;-59
2021/12/23 12:30:34;;;;;;;28.40;20.20;;;3.90;97.50;;;;;;5033267;28;20231;-54
2021/12/23 12:33:02;;;;;;;29.27;19.70;;;3.80;97.40;;;;;;5032550;28;20572;-58
2021/12/23 12:35:28;;;;;;;27.37;19.07;;;3.60;97.50;;;;;;5032048;28;20164;-59
2021/12/23 12:37:54;;;;;;;28.13;19.27;;;3.30;98.10;;;;;;5032424;28;20167;-53
2021/12/23 12:40:19;;;;;;;27.13;20.03;;;3.20;98.20;;;;;;5032392;28;20179;-51
2021/12/23 12:42:48;;;;;;;30.13;21.00;;;2.90;98.80;;;;;;5032302;28;20170;-51
2021/12/23 12:45:25;;;;;;;30.67;20.73;;;2.70;99.10;;;;;;5032278;28;20187;-56
2021/12/23 12:47:59;;;;;;;29.27;20.57;;;2.70;99.40;;;;;;5032401;28;20184;-54
2021/12/23 12:50:28;;;;;;;30.00;20.07;;;2.70;99.30;;;;;;5032178;28;20169;-55
2021/12/23 12:53:00;;;;;;;31.77;21.30;;;2.60;99.50;;;;;;5032040;28;20199;-52
2021/12/23 12:55:26;;;;;;;28.30;20.10;;;2.40;99.90;;;;;;5032170;28;20379;-55
2021/12/23 12:57:58;;;;;;;26.77;19.57;;;2.30;99.90;;;;;;5014429;28;20164;-53
2021/12/23 13:00:31;;;;;;;26.17;19.20;;;2.50;99.90;;;;;;5032093;28;20760;-53
2021/12/23 13:03:21;;;;;;;29.03;20.50;;;2.60;99.80;;;;;;5031720;28;20414;-53
2021/12/23 13:05:50;;;;;;;29.33;20.43;;;2.70;99.90;;;;;;5031485;28;20446;-51
2021/12/23 13:08:29;;;;;;;28.70;19.93;;;2.90;99.90;;;;;;5031647;28;20418;-52
2021/12/23 13:11:07;;;;;;;29.17;20.80;;;2.90;99.60;;;;;;5031769;28;20938;-50
2021/12/23 13:13:40;;;;;;;31.07;20.17;;;2.80;99.60;;;;;;5031567;28;20419;-52
2021/12/23 13:16:23;;;;;;;28.63;20.30;;;2.80;99.90;;;;;;5031611;28;20510;-56
2021/12/23 13:19:08;;;;;;;27.90;20.03;;;2.80;99.90;;;;;;5031614;28;20950;-55
2021/12/23 13:21:43;;;;;;;27.20;18.67;;;2.80;99.90;;;;;;5031315;28;20501;-52
2021/12/23 13:24:13;;;;;;;29.73;20.60;;;2.90;99.90;;;;;;5031537;28;20522;-51
2021/12/23 13:26:50;;;;;;;30.03;20.70;;;2.90;99.70;;;;;;5031536;28;20485;-57
2021/12/23 13:29:17;;;;;;;30.20;21.23;;;2.80;99.80;;;;;;5031564;28;20168;-51
2021/12/23 13:31:45;;;;;;;31.17;21.57;;;2.70;99.90;;;;;;5031628;28;20410;-54
2021/12/23 13:34:21;;;;;;;32.33;21.33;;;2.70;99.90;;;;;;5031417;28;20423;-54
2021/12/23 13:36:53;;;;;;;29.60;20.40;;;2.60;99.90;;;;;;5031406;28;20418;-51
2021/12/23 13:39:25;;;;;;;31.43;21.43;;;2.40;99.90;;;;;;5031563;28;20921;-51
2021/12/23 13:41:55;;;;;;;31.73;21.00;;;2.30;99.90;;;;;;5031576;28;20938;-54
2021/12/23 13:44:25;;;;;;;33.93;21.60;;;2.10;99.90;;;;;;5031328;28;20430;-54
2021/12/23 13:47:09;;;;;;;32.10;22.03;;;1.80;99.90;;;;;;5031182;28;20454;-55
2021/12/23 13:49:38;;;;;;;32.10;20.60;;;1.60;99.90;;;;;;5031479;28;20493;-58